sensor_id;sensor_type;location;lat;lon;timestamp;P1;durP1;ratioP1;P2;durP2;ratioP2
6438;SDS011;3252;52.540;13.290;2023-02-27T00:00:07;6.83;;;3.50;;
6438;SDS011;3252;52.540;13.290;2023-02-27T00:02:22;4.07;;;2.30;;
6438;SDS011;3252;52.540;13.290;2023-02-27T00:07:37;7.10;;;2.77;;
6438;SDS011;3252;52.540;13.290;2023-02-27T00:10:33;4.90;;;2.40;;
6438;SDS011;3252;52.540;13.290;2023-02-27T00:17:05;4.30;;;2.60;;
6438;SDS011;3252;52.540;13.290;2023-02-27T00:19:49;3.73;;;2.30;;
6438;SDS011;3252;52.540;13.290;2023-02-27T00:22:19;3.83;;;2.30;;
6438;SDS011;3252;52.540;13.290;2023-02-27T00:25:02;7.30;;;2.73;;
6438;SDS011;3252;52.540;13.290;2023-02-27T00:28:02;4.10;;;2.20;;
6438;SDS011;3252;52.540;13.290;2023-02-27T00:31:01;5.50;;;2.50;;
6438;SDS011;3252;52.540;13.290;2023-02-27T00:33:36;3.43;;;2.30;;
6438;SDS011;3252;52.540;13.290;2023-02-27T00:36:20;3.67;;;2.00;;
6438;SDS011;3252;52.540;13.290;2023-02-27T00:38:35;4.03;;;2.20;;
6438;SDS011;3252;52.540;13.290;2023-02-27T00:40:47;4.63;;;2.67;;
6438;SDS011;3252;52.540;13.290;2023-02-27T00:42:50;4.67;;;2.23;;
6438;SDS011;3252;52.540;13.290;2023-02-27T00:45:00;5.60;;;2.50;;
6438;SDS011;3252;52.540;13.290;2023-02-27T00:47:09;3.80;;;2.57;;
6438;SDS011;3252;52.540;13.290;2023-02-27T00:49:58;6.50;;;2.93;;
6438;SDS011;3252;52.540;13.290;2023-02-27T00:52:23;4.67;;;2.60;;
6438;SDS011;3252;52.540;13.290;2023-02-27T00:54:28;4.03;;;2.73;;
6438;SDS011;3252;52.540;13.290;2023-02-27T00:57:27;5.53;;;2.20;;
6438;SDS011;3252;52.540;13.290;2023-02-27T00:59:57;6.67;;;2.60;;
6438;SDS011;3252;52.540;13.290;2023-02-27T01:02:16;6.40;;;2.60;;
6438;SDS011;3252;52.540;13.290;2023-02-27T01:04:51;3.87;;;2.50;;
6438;SDS011;3252;52.540;13.290;2023-02-27T01:07:36;5.10;;;2.80;;
6438;SDS011;3252;52.540;13.290;2023-02-27T01:10:26;7.67;;;2.80;;
6438;SDS011;3252;52.540;13.290;2023-02-27T01:12:45;4.93;;;2.93;;
6438;SDS011;3252;52.540;13.290;2023-02-27T01:15:21;5.37;;;2.60;;
6438;SDS011;3252;52.540;13.290;2023-02-27T01:17:51;4.27;;;2.63;;
6438;SDS011;3252;52.540;13.290;2023-02-27T01:20:14;5.47;;;2.60;;
6438;SDS011;3252;52.540;13.290;2023-02-27T01:22:19;4.93;;;2.80;;
6438;SDS011;3252;52.540;13.290;2023-02-27T01:24:25;4.97;;;2.40;;
6438;SDS011;3252;52.540;13.290;2023-02-27T01:26:31;5.27;;;2.50;;
6438;SDS011;3252;52.540;13.290;2023-02-27T01:28:43;4.47;;;2.47;;
6438;SDS011;3252;52.540;13.290;2023-02-27T01:31:17;3.40;;;2.47;;
6438;SDS011;3252;52.540;13.290;2023-02-27T01:34:04;6.67;;;2.77;;
6438;SDS011;3252;52.540;13.290;2023-02-27T01:36:11;4.27;;;2.60;;
6438;SDS011;3252;52.540;13.290;2023-02-27T01:39:08;5.73;;;3.00;;
6438;SDS011;3252;52.540;13.290;2023-02-27T01:42:20;4.33;;;2.63;;
6438;SDS011;3252;52.540;13.290;2023-02-27T01:45:06;4.63;;;2.63;;
6438;SDS011;3252;52.540;13.290;2023-02-27T01:55:08;5.27;;;2.80;;
6438;SDS011;3252;52.540;13.290;2023-02-27T01:57:42;4.83;;;2.53;;
6438;SDS011;3252;52.540;13.290;2023-02-27T02:00:14;4.97;;;2.63;;
6438;SDS011;3252;52.540;13.290;2023-02-27T02:02:37;5.10;;;2.50;;
6438;SDS011;3252;52.540;13.290;2023-02-27T02:05:20;7.17;;;2.70;;
6438;SDS011;3252;52.540;13.290;2023-02-27T02:07:37;7.80;;;2.80;;
6438;SDS011;3252;52.540;13.290;2023-02-27T02:10:31;5.63;;;2.53;;
6438;SDS011;3252;52.540;13.290;2023-02-27T02:13:13;3.67;;;2.50;;
6438;SDS011;3252;52.540;13.290;2023-02-27T02:16:28;4.73;;;2.70;;
6438;SDS011;3252;52.540;13.290;2023-02-27T02:33:25;3.20;;;2.00;;
6438;SDS011;3252;52.540;13.290;2023-02-27T02:43:30;4.17;;;2.03;;
6438;SDS011;3252;52.540;13.290;2023-02-27T02:46:38;3.70;;;2.03;;
6438;SDS011;3252;52.540;13.290;2023-02-27T02:52:33;5.03;;;1.90;;
6438;SDS011;3252;52.540;13.290;2023-02-27T02:55:05;2.17;;;1.73;;
6438;SDS011;3252;52.540;13.290;2023-02-27T02:58:05;5.27;;;1.90;;
6438;SDS011;3252;52.540;13.290;2023-02-27T03:00:58;5.40;;;2.33;;
6438;SDS011;3252;52.540;13.290;2023-02-27T03:03:48;8.47;;;2.33;;
6438;SDS011;3252;52.540;13.290;2023-02-27T03:06:16;2.97;;;2.00;;
6438;SDS011;3252;52.540;13.290;2023-02-27T03:08:53;2.97;;;1.70;;
6438;SDS011;3252;52.540;13.290;2023-02-27T03:11:22;3.90;;;2.00;;
6438;SDS011;3252;52.540;13.290;2023-02-27T03:13:44;2.93;;;1.70;;
6438;SDS011;3252;52.540;13.290;2023-02-27T03:16:09;4.63;;;1.97;;
6438;SDS011;3252;52.540;13.290;2023-02-27T03:18:32;4.30;;;2.03;;
6438;SDS011;3252;52.540;13.290;2023-02-27T03:21:33;2.73;;;1.77;;
6438;SDS011;3252;52.540;13.290;2023-02-27T03:24:07;4.17;;;2.10;;
6438;SDS011;3252;52.540;13.290;2023-02-27T03:26:31;4.33;;;2.20;;
6438;SDS011;3252;52.540;13.290;2023-02-27T03:28:53;5.73;;;2.00;;
6438;SDS011;3252;52.540;13.290;2023-02-27T03:31:02;5.50;;;1.80;;
6438;SDS011;3252;52.540;13.290;2023-02-27T03:33:16;2.73;;;1.90;;
6438;SDS011;3252;52.540;13.290;2023-02-27T03:35:40;3.90;;;2.17;;
6438;SDS011;3252;52.540;13.290;2023-02-27T03:38:35;4.63;;;2.30;;
6438;SDS011;3252;52.540;13.290;2023-02-27T03:44:12;4.50;;;2.00;;
6438;SDS011;3252;52.540;13.290;2023-02-27T03:49:52;3.87;;;2.03;;
6438;SDS011;3252;52.540;13.290;2023-02-27T03:52:24;2.83;;;1.67;;
6438;SDS011;3252;52.540;13.290;2023-02-27T03:54:48;6.60;;;2.43;;
6438;SDS011;3252;52.540;13.290;2023-02-27T03:57:13;3.10;;;1.93;;
6438;SDS011;3252;52.540;13.290;2023-02-27T03:59:55;4.13;;;2.07;;
6438;SDS011;3252;52.540;13.290;2023-02-27T04:02:53;5.00;;;2.43;;
6438;SDS011;3252;52.540;13.290;2023-02-27T04:05:51;3.40;;;1.90;;
6438;SDS011;3252;52.540;13.290;2023-02-27T04:08:58;4.80;;;2.30;;
6438;SDS011;3252;52.540;13.290;2023-02-27T04:11:50;3.93;;;2.20;;
6438;SDS011;3252;52.540;13.290;2023-02-27T04:14:51;4.60;;;2.00;;
6438;SDS011;3252;52.540;13.290;2023-02-27T04:17:43;4.63;;;2.60;;
6438;SDS011;3252;52.540;13.290;2023-02-27T04:20:38;4.63;;;2.10;;
6438;SDS011;3252;52.540;13.290;2023-02-27T04:23:25;4.37;;;2.03;;
6438;SDS011;3252;52.540;13.290;2023-02-27T04:29:41;3.77;;;1.90;;
6438;SDS011;3252;52.540;13.290;2023-02-27T04:32:43;3.17;;;1.77;;
6438;SDS011;3252;52.540;13.290;2023-02-27T04:36:09;3.33;;;1.87;;
6438;SDS011;3252;52.540;13.290;2023-02-27T04:41:45;3.73;;;2.20;;
6438;SDS011;3252;52.540;13.290;2023-02-27T04:44:01;4.47;;;2.37;;
6438;SDS011;3252;52.540;13.290;2023-02-27T04:46:30;5.70;;;2.43;;
6438;SDS011;3252;52.540;13.290;2023-02-27T04:48:51;4.07;;;2.27;;
6438;SDS011;3252;52.540;13.290;2023-02-27T04:51:16;2.93;;;2.27;;
6438;SDS011;3252;52.540;13.290;2023-02-27T04:53:32;4.60;;;2.53;;
6438;SDS011;3252;52.540;13.290;2023-02-27T04:55:53;7.80;;;2.33;;
6438;SDS011;3252;52.540;13.290;2023-02-27T04:58:27;3.30;;;1.90;;
6438;SDS011;3252;52.540;13.290;2023-02-27T05:01:13;2.97;;;2.10;;
6438;SDS011;3252;52.540;13.290;2023-02-27T05:04:17;3.87;;;2.17;;
6438;SDS011;3252;52.540;13.290;2023-02-27T05:10:23;4.50;;;2.30;;
6438;SDS011;3252;52.540;13.290;2023-02-27T05:13:02;4.93;;;2.23;;
6438;SDS011;3252;52.540;13.290;2023-02-27T05:16:01;4.00;;;2.57;;
6438;SDS011;3252;52.540;13.290;2023-02-27T05:19:13;5.70;;;3.43;;
6438;SDS011;3252;52.540;13.290;2023-02-27T05:21:50;4.97;;;3.33;;
6438;SDS011;3252;52.540;13.290;2023-02-27T05:24:18;4.10;;;2.40;;
6438;SDS011;3252;52.540;13.290;2023-02-27T05:27:03;6.00;;;2.40;;
6438;SDS011;3252;52.540;13.290;2023-02-27T05:30:11;5.60;;;2.77;;
6438;SDS011;3252;52.540;13.290;2023-02-27T05:32:43;10.50;;;6.47;;
6438;SDS011;3252;52.540;13.290;2023-02-27T05:35:42;7.40;;;3.73;;
6438;SDS011;3252;52.540;13.290;2023-02-27T05:41:02;5.53;;;2.97;;
6438;SDS011;3252;52.540;13.290;2023-02-27T05:44:14;7.13;;;3.07;;
6438;SDS011;3252;52.540;13.290;2023-02-27T05:49:49;4.17;;;2.60;;
6438;SDS011;3252;52.540;13.290;2023-02-27T05:52:31;4.50;;;2.73;;
6438;SDS011;3252;52.540;13.290;2023-02-27T05:55:12;6.43;;;2.60;;
6438;SDS011;3252;52.540;13.290;2023-02-27T05:58:07;5.00;;;2.50;;
6438;SDS011;3252;52.540;13.290;2023-02-27T06:00:48;10.97;;;3.70;;
6438;SDS011;3252;52.540;13.290;2023-02-27T06:03:18;5.40;;;3.07;;
6438;SDS011;3252;52.540;13.290;2023-02-27T06:05:54;5.43;;;2.53;;
6438;SDS011;3252;52.540;13.290;2023-02-27T06:08:01;5.60;;;2.90;;
6438;SDS011;3252;52.540;13.290;2023-02-27T06:10:21;5.03;;;2.73;;
6438;SDS011;3252;52.540;13.290;2023-02-27T06:13:15;5.73;;;3.63;;
6438;SDS011;3252;52.540;13.290;2023-02-27T06:16:12;9.40;;;3.10;;
6438;SDS011;3252;52.540;13.290;2023-02-27T06:18:56;4.37;;;2.70;;
6438;SDS011;3252;52.540;13.290;2023-02-27T06:21:24;5.90;;;2.50;;
6438;SDS011;3252;52.540;13.290;2023-02-27T06:24:14;4.53;;;2.87;;
6438;SDS011;3252;52.540;13.290;2023-02-27T06:26:56;7.13;;;2.80;;
6438;SDS011;3252;52.540;13.290;2023-02-27T06:29:56;4.93;;;2.60;;
6438;SDS011;3252;52.540;13.290;2023-02-27T06:33:00;5.37;;;3.07;;
6438;SDS011;3252;52.540;13.290;2023-02-27T06:35:22;4.37;;;2.50;;
6438;SDS011;3252;52.540;13.290;2023-02-27T06:38:07;5.53;;;3.00;;
6438;SDS011;3252;52.540;13.290;2023-02-27T06:41:11;4.17;;;2.50;;
6438;SDS011;3252;52.540;13.290;2023-02-27T06:43:47;5.57;;;2.60;;
6438;SDS011;3252;52.540;13.290;2023-02-27T06:48:41;4.67;;;2.40;;
6438;SDS011;3252;52.540;13.290;2023-02-27T06:51:00;5.40;;;2.63;;
6438;SDS011;3252;52.540;13.290;2023-02-27T06:53:11;3.80;;;2.47;;
6438;SDS011;3252;52.540;13.290;2023-02-27T06:55:21;4.17;;;2.63;;
6438;SDS011;3252;52.540;13.290;2023-02-27T06:58:04;7.10;;;2.47;;
6438;SDS011;3252;52.540;13.290;2023-02-27T07:00:47;6.20;;;3.00;;
6438;SDS011;3252;52.540;13.290;2023-02-27T07:03:15;4.23;;;2.77;;
6438;SDS011;3252;52.540;13.290;2023-02-27T07:05:20;6.33;;;2.47;;
6438;SDS011;3252;52.540;13.290;2023-02-27T07:07:23;9.83;;;3.20;;
6438;SDS011;3252;52.540;13.290;2023-02-27T07:09:26;6.73;;;3.03;;
6438;SDS011;3252;52.540;13.290;2023-02-27T07:11:39;6.90;;;2.47;;
6438;SDS011;3252;52.540;13.290;2023-02-27T07:13:43;5.53;;;3.27;;
6438;SDS011;3252;52.540;13.290;2023-02-27T07:15:45;7.07;;;2.77;;
6438;SDS011;3252;52.540;13.290;2023-02-27T07:17:48;4.27;;;2.70;;
6438;SDS011;3252;52.540;13.290;2023-02-27T07:19:50;7.20;;;2.67;;
6438;SDS011;3252;52.540;13.290;2023-02-27T07:21:52;4.97;;;2.93;;
6438;SDS011;3252;52.540;13.290;2023-02-27T07:23:54;6.87;;;2.63;;
6438;SDS011;3252;52.540;13.290;2023-02-27T07:25:56;6.00;;;2.70;;
6438;SDS011;3252;52.540;13.290;2023-02-27T07:27:59;6.20;;;3.00;;
6438;SDS011;3252;52.540;13.290;2023-02-27T07:30:02;5.30;;;2.53;;
6438;SDS011;3252;52.540;13.290;2023-02-27T07:32:05;7.23;;;3.27;;
6438;SDS011;3252;52.540;13.290;2023-02-27T07:34:07;4.30;;;2.87;;
6438;SDS011;3252;52.540;13.290;2023-02-27T07:36:11;5.93;;;2.87;;
6438;SDS011;3252;52.540;13.290;2023-02-27T07:38:13;5.73;;;2.87;;
6438;SDS011;3252;52.540;13.290;2023-02-27T07:40:16;7.57;;;3.03;;
6438;SDS011;3252;52.540;13.290;2023-02-27T07:42:18;4.80;;;3.20;;
6438;SDS011;3252;52.540;13.290;2023-02-27T07:44:21;10.27;;;3.33;;
6438;SDS011;3252;52.540;13.290;2023-02-27T07:46:24;6.47;;;3.60;;
6438;SDS011;3252;52.540;13.290;2023-02-27T07:48:26;10.53;;;3.00;;
6438;SDS011;3252;52.540;13.290;2023-02-27T07:50:28;7.03;;;3.20;;
6438;SDS011;3252;52.540;13.290;2023-02-27T07:52:32;6.50;;;3.00;;
6438;SDS011;3252;52.540;13.290;2023-02-27T07:54:34;6.10;;;2.77;;
6438;SDS011;3252;52.540;13.290;2023-02-27T07:56:36;7.90;;;3.10;;
6438;SDS011;3252;52.540;13.290;2023-02-27T07:58:39;6.87;;;3.20;;
6438;SDS011;3252;52.540;13.290;2023-02-27T08:00:42;5.37;;;2.83;;
6438;SDS011;3252;52.540;13.290;2023-02-27T08:02:46;5.83;;;2.60;;
6438;SDS011;3252;52.540;13.290;2023-02-27T08:04:48;5.27;;;2.83;;
6438;SDS011;3252;52.540;13.290;2023-02-27T08:06:51;5.60;;;2.97;;
6438;SDS011;3252;52.540;13.290;2023-02-27T08:08:53;5.67;;;2.97;;
6438;SDS011;3252;52.540;13.290;2023-02-27T08:10:55;5.37;;;3.27;;
6438;SDS011;3252;52.540;13.290;2023-02-27T08:12:57;8.33;;;3.50;;
6438;SDS011;3252;52.540;13.290;2023-02-27T08:15:00;7.13;;;3.00;;
6438;SDS011;3252;52.540;13.290;2023-02-27T08:17:02;5.57;;;3.37;;
6438;SDS011;3252;52.540;13.290;2023-02-27T08:19:06;8.30;;;3.33;;
6438;SDS011;3252;52.540;13.290;2023-02-27T08:21:08;6.20;;;3.57;;
6438;SDS011;3252;52.540;13.290;2023-02-27T08:23:10;7.60;;;3.37;;
6438;SDS011;3252;52.540;13.290;2023-02-27T08:25:13;8.57;;;2.97;;
6438;SDS011;3252;52.540;13.290;2023-02-27T08:27:15;5.70;;;3.37;;
6438;SDS011;3252;52.540;13.290;2023-02-27T08:29:17;7.13;;;3.60;;
6438;SDS011;3252;52.540;13.290;2023-02-27T08:31:19;6.37;;;3.80;;
6438;SDS011;3252;52.540;13.290;2023-02-27T08:33:22;5.57;;;3.07;;
6438;SDS011;3252;52.540;13.290;2023-02-27T08:35:26;6.87;;;3.20;;
6438;SDS011;3252;52.540;13.290;2023-02-27T08:37:28;7.47;;;3.50;;
6438;SDS011;3252;52.540;13.290;2023-02-27T08:39:31;8.40;;;3.23;;
6438;SDS011;3252;52.540;13.290;2023-02-27T08:41:33;7.83;;;3.10;;
6438;SDS011;3252;52.540;13.290;2023-02-27T08:43:36;4.90;;;3.03;;
6438;SDS011;3252;52.540;13.290;2023-02-27T08:45:38;7.23;;;3.33;;
6438;SDS011;3252;52.540;13.290;2023-02-27T08:47:40;7.07;;;3.43;;
6438;SDS011;3252;52.540;13.290;2023-02-27T08:49:44;6.67;;;3.00;;
6438;SDS011;3252;52.540;13.290;2023-02-27T08:51:48;6.00;;;3.07;;
6438;SDS011;3252;52.540;13.290;2023-02-27T08:53:50;6.53;;;3.23;;
6438;SDS011;3252;52.540;13.290;2023-02-27T08:55:54;7.23;;;3.03;;
6438;SDS011;3252;52.540;13.290;2023-02-27T08:57:56;9.23;;;3.30;;
6438;SDS011;3252;52.540;13.290;2023-02-27T08:59:58;6.93;;;3.40;;
6438;SDS011;3252;52.540;13.290;2023-02-27T09:02:01;7.40;;;3.33;;
6438;SDS011;3252;52.540;13.290;2023-02-27T09:04:03;10.20;;;3.67;;
6438;SDS011;3252;52.540;13.290;2023-02-27T09:06:06;8.00;;;3.70;;
6438;SDS011;3252;52.540;13.290;2023-02-27T09:08:10;8.00;;;3.57;;
6438;SDS011;3252;52.540;13.290;2023-02-27T09:10:12;7.00;;;3.27;;
6438;SDS011;3252;52.540;13.290;2023-02-27T09:12:15;7.93;;;3.20;;
6438;SDS011;3252;52.540;13.290;2023-02-27T09:14:17;6.40;;;3.57;;
6438;SDS011;3252;52.540;13.290;2023-02-27T09:16:20;7.37;;;3.60;;
6438;SDS011;3252;52.540;13.290;2023-02-27T09:18:23;8.83;;;3.90;;
6438;SDS011;3252;52.540;13.290;2023-02-27T09:20:25;10.57;;;3.50;;
6438;SDS011;3252;52.540;13.290;2023-02-27T09:22:28;7.43;;;3.40;;
6438;SDS011;3252;52.540;13.290;2023-02-27T09:24:32;8.43;;;3.77;;
6438;SDS011;3252;52.540;13.290;2023-02-27T09:26:34;8.40;;;3.53;;
6438;SDS011;3252;52.540;13.290;2023-02-27T09:28:36;7.13;;;3.80;;
6438;SDS011;3252;52.540;13.290;2023-02-27T09:30:39;11.60;;;3.73;;
6438;SDS011;3252;52.540;13.290;2023-02-27T09:32:42;8.20;;;4.03;;
6438;SDS011;3252;52.540;13.290;2023-02-27T09:34:44;6.40;;;3.53;;
6438;SDS011;3252;52.540;13.290;2023-02-27T09:36:47;9.67;;;3.63;;
6438;SDS011;3252;52.540;13.290;2023-02-27T09:38:49;6.27;;;3.53;;
6438;SDS011;3252;52.540;13.290;2023-02-27T09:40:53;14.60;;;6.93;;
6438;SDS011;3252;52.540;13.290;2023-02-27T09:42:59;8.00;;;4.00;;
6438;SDS011;3252;52.540;13.290;2023-02-27T09:45:04;9.97;;;4.50;;
6438;SDS011;3252;52.540;13.290;2023-02-27T09:47:09;9.17;;;4.00;;
6438;SDS011;3252;52.540;13.290;2023-02-27T09:49:17;9.60;;;3.97;;
6438;SDS011;3252;52.540;13.290;2023-02-27T09:51:22;8.90;;;3.67;;
6438;SDS011;3252;52.540;13.290;2023-02-27T09:53:25;11.33;;;3.90;;
6438;SDS011;3252;52.540;13.290;2023-02-27T09:55:30;10.00;;;3.90;;
6438;SDS011;3252;52.540;13.290;2023-02-27T09:57:43;6.07;;;3.87;;
6438;SDS011;3252;52.540;13.290;2023-02-27T09:59:51;5.00;;;3.10;;
6438;SDS011;3252;52.540;13.290;2023-02-27T10:02:00;7.67;;;3.73;;
6438;SDS011;3252;52.540;13.290;2023-02-27T10:06:32;9.53;;;3.80;;
6438;SDS011;3252;52.540;13.290;2023-02-27T10:08:41;9.53;;;3.97;;
6438;SDS011;3252;52.540;13.290;2023-02-27T10:10:53;8.47;;;4.30;;
6438;SDS011;3252;52.540;13.290;2023-02-27T10:13:07;8.37;;;4.07;;
6438;SDS011;3252;52.540;13.290;2023-02-27T10:15:26;5.87;;;3.47;;
6438;SDS011;3252;52.540;13.290;2023-02-27T10:17:33;7.37;;;3.97;;
6438;SDS011;3252;52.540;13.290;2023-02-27T10:19:39;6.17;;;4.27;;
6438;SDS011;3252;52.540;13.290;2023-02-27T10:21:45;8.57;;;5.10;;
6438;SDS011;3252;52.540;13.290;2023-02-27T10:23:53;9.53;;;4.37;;
6438;SDS011;3252;52.540;13.290;2023-02-27T10:25:58;10.57;;;4.07;;
6438;SDS011;3252;52.540;13.290;2023-02-27T10:28:10;9.37;;;4.00;;
6438;SDS011;3252;52.540;13.290;2023-02-27T10:30:18;7.20;;;3.60;;
6438;SDS011;3252;52.540;13.290;2023-02-27T10:32:23;9.87;;;3.70;;
6438;SDS011;3252;52.540;13.290;2023-02-27T10:34:29;7.40;;;4.30;;
6438;SDS011;3252;52.540;13.290;2023-02-27T10:36:33;11.83;;;4.70;;
6438;SDS011;3252;52.540;13.290;2023-02-27T10:38:37;6.90;;;3.97;;
6438;SDS011;3252;52.540;13.290;2023-02-27T10:40:41;8.50;;;3.83;;
6438;SDS011;3252;52.540;13.290;2023-02-27T10:42:44;8.80;;;4.17;;
6438;SDS011;3252;52.540;13.290;2023-02-27T10:44:49;11.60;;;4.03;;
6438;SDS011;3252;52.540;13.290;2023-02-27T10:46:53;7.30;;;3.50;;
6438;SDS011;3252;52.540;13.290;2023-02-27T10:48:56;8.13;;;4.20;;
6438;SDS011;3252;52.540;13.290;2023-02-27T10:53:23;6.47;;;3.83;;
6438;SDS011;3252;52.540;13.290;2023-02-27T10:55:27;9.97;;;4.33;;
6438;SDS011;3252;52.540;13.290;2023-02-27T10:57:35;8.33;;;3.83;;
6438;SDS011;3252;52.540;13.290;2023-02-27T10:59:48;7.53;;;3.53;;
6438;SDS011;3252;52.540;13.290;2023-02-27T11:01:55;9.40;;;3.57;;
6438;SDS011;3252;52.540;13.290;2023-02-27T11:04:00;9.17;;;3.23;;
6438;SDS011;3252;52.540;13.290;2023-02-27T11:06:03;6.77;;;3.33;;
6438;SDS011;3252;52.540;13.290;2023-02-27T11:08:12;9.27;;;3.20;;
6438;SDS011;3252;52.540;13.290;2023-02-27T11:10:25;10.40;;;3.67;;
6438;SDS011;3252;52.540;13.290;2023-02-27T11:12:29;8.33;;;3.27;;
6438;SDS011;3252;52.540;13.290;2023-02-27T11:14:32;8.90;;;3.20;;
6438;SDS011;3252;52.540;13.290;2023-02-27T11:16:46;4.70;;;2.70;;
6438;SDS011;3252;52.540;13.290;2023-02-27T11:18:51;5.37;;;2.57;;
6438;SDS011;3252;52.540;13.290;2023-02-27T11:21:07;6.40;;;3.00;;
6438;SDS011;3252;52.540;13.290;2023-02-27T11:23:28;7.53;;;2.90;;
6438;SDS011;3252;52.540;13.290;2023-02-27T11:25:33;8.57;;;3.13;;
6438;SDS011;3252;52.540;13.290;2023-02-27T11:27:35;3.73;;;2.00;;
6438;SDS011;3252;52.540;13.290;2023-02-27T11:29:38;6.73;;;2.10;;
6438;SDS011;3252;52.540;13.290;2023-02-27T11:31:59;4.03;;;1.70;;
6438;SDS011;3252;52.540;13.290;2023-02-27T11:34:04;8.00;;;2.20;;
6438;SDS011;3252;52.540;13.290;2023-02-27T11:36:07;11.93;;;2.10;;
6438;SDS011;3252;52.540;13.290;2023-02-27T11:38:15;3.67;;;1.67;;
6438;SDS011;3252;52.540;13.290;2023-02-27T11:40:23;6.43;;;1.47;;
6438;SDS011;3252;52.540;13.290;2023-02-27T11:42:30;7.30;;;1.70;;
6438;SDS011;3252;52.540;13.290;2023-02-27T11:44:34;2.60;;;1.30;;
6438;SDS011;3252;52.540;13.290;2023-02-27T11:46:38;6.97;;;1.50;;
6438;SDS011;3252;52.540;13.290;2023-02-27T11:48:45;3.17;;;1.70;;
6438;SDS011;3252;52.540;13.290;2023-02-27T11:50:53;2.23;;;1.50;;
6438;SDS011;3252;52.540;13.290;2023-02-27T11:53:16;4.83;;;1.40;;
6438;SDS011;3252;52.540;13.290;2023-02-27T11:55:29;1.85;;;1.00;;
6438;SDS011;3252;52.540;13.290;2023-02-27T11:57:33;3.00;;;1.60;;
6438;SDS011;3252;52.540;13.290;2023-02-27T11:59:41;2.13;;;1.30;;
6438;SDS011;3252;52.540;13.290;2023-02-27T12:01:48;2.08;;;1.20;;
6438;SDS011;3252;52.540;13.290;2023-02-27T12:03:57;2.75;;;1.20;;
6438;SDS011;3252;52.540;13.290;2023-02-27T12:06:03;6.32;;;1.13;;
6438;SDS011;3252;52.540;13.290;2023-02-27T12:08:15;4.50;;;1.13;;
6438;SDS011;3252;52.540;13.290;2023-02-27T12:10:21;2.15;;;1.17;;
6438;SDS011;3252;52.540;13.290;2023-02-27T12:12:28;1.42;;;1.13;;
6438;SDS011;3252;52.540;13.290;2023-02-27T12:14:36;4.10;;;1.70;;
6438;SDS011;3252;52.540;13.290;2023-02-27T12:16:45;3.05;;;1.40;;
6438;SDS011;3252;52.540;13.290;2023-02-27T12:18:52;2.10;;;1.00;;
6438;SDS011;3252;52.540;13.290;2023-02-27T12:20:59;1.73;;;1.20;;
6438;SDS011;3252;52.540;13.290;2023-02-27T12:23:08;3.70;;;1.60;;
6438;SDS011;3252;52.540;13.290;2023-02-27T12:25:26;5.25;;;1.30;;
6438;SDS011;3252;52.540;13.290;2023-02-27T12:27:41;4.65;;;1.55;;
6438;SDS011;3252;52.540;13.290;2023-02-27T12:29:48;2.45;;;1.33;;
6438;SDS011;3252;52.540;13.290;2023-02-27T12:31:55;4.57;;;1.52;;
6438;SDS011;3252;52.540;13.290;2023-02-27T12:34:03;2.22;;;1.10;;
6438;SDS011;3252;52.540;13.290;2023-02-27T12:36:13;5.10;;;1.10;;
6438;SDS011;3252;52.540;13.290;2023-02-27T12:38:16;2.97;;;1.25;;
6438;SDS011;3252;52.540;13.290;2023-02-27T12:40:20;4.03;;;1.30;;
6438;SDS011;3252;52.540;13.290;2023-02-27T12:42:39;5.10;;;1.35;;
6438;SDS011;3252;52.540;13.290;2023-02-27T12:45:11;4.00;;;1.30;;
6438;SDS011;3252;52.540;13.290;2023-02-27T12:47:32;2.40;;;1.00;;
6438;SDS011;3252;52.540;13.290;2023-02-27T12:49:40;1.83;;;0.80;;
6438;SDS011;3252;52.540;13.290;2023-02-27T12:51:51;2.33;;;0.80;;
6438;SDS011;3252;52.540;13.290;2023-02-27T12:54:05;1.90;;;1.10;;
6438;SDS011;3252;52.540;13.290;2023-02-27T12:56:19;2.63;;;1.10;;
6438;SDS011;3252;52.540;13.290;2023-02-27T12:58:27;3.80;;;1.00;;
6438;SDS011;3252;52.540;13.290;2023-02-27T13:00:40;2.60;;;0.80;;
6438;SDS011;3252;52.540;13.290;2023-02-27T13:02:52;1.20;;;0.80;;
6438;SDS011;3252;52.540;13.290;2023-02-27T13:04:59;2.40;;;0.80;;
6438;SDS011;3252;52.540;13.290;2023-02-27T13:07:12;1.63;;;1.03;;
6438;SDS011;3252;52.540;13.290;2023-02-27T13:09:27;5.37;;;0.90;;
6438;SDS011;3252;52.540;13.290;2023-02-27T13:11:39;1.33;;;0.70;;
6438;SDS011;3252;52.540;13.290;2023-02-27T13:13:47;1.93;;;1.03;;
6438;SDS011;3252;52.540;13.290;2023-02-27T13:15:54;1.80;;;0.80;;
6438;SDS011;3252;52.540;13.290;2023-02-27T13:18:00;2.30;;;1.00;;
6438;SDS011;3252;52.540;13.290;2023-02-27T13:20:10;1.67;;;0.90;;
6438;SDS011;3252;52.540;13.290;2023-02-27T13:22:31;4.90;;;1.00;;
6438;SDS011;3252;52.540;13.290;2023-02-27T13:24:39;3.90;;;0.70;;
6438;SDS011;3252;52.540;13.290;2023-02-27T13:26:45;5.13;;;1.10;;
6438;SDS011;3252;52.540;13.290;2023-02-27T13:28:51;3.53;;;1.00;;
6438;SDS011;3252;52.540;13.290;2023-02-27T13:30:57;3.97;;;1.10;;
6438;SDS011;3252;52.540;13.290;2023-02-27T13:33:11;1.40;;;0.80;;
6438;SDS011;3252;52.540;13.290;2023-02-27T13:35:27;2.13;;;0.80;;
6438;SDS011;3252;52.540;13.290;2023-02-27T13:39:55;4.17;;;0.97;;
6438;SDS011;3252;52.540;13.290;2023-02-27T13:42:00;1.93;;;1.10;;
6438;SDS011;3252;52.540;13.290;2023-02-27T13:46:48;3.03;;;1.30;;
6438;SDS011;3252;52.540;13.290;2023-02-27T13:48:50;3.30;;;0.90;;
6438;SDS011;3252;52.540;13.290;2023-02-27T13:50:54;3.40;;;1.23;;
6438;SDS011;3252;52.540;13.290;2023-02-27T13:52:57;1.83;;;0.97;;
6438;SDS011;3252;52.540;13.290;2023-02-27T13:55:23;4.47;;;1.10;;
6438;SDS011;3252;52.540;13.290;2023-02-27T13:57:28;3.73;;;0.93;;
6438;SDS011;3252;52.540;13.290;2023-02-27T13:59:33;2.27;;;0.70;;
6438;SDS011;3252;52.540;13.290;2023-02-27T14:01:38;1.10;;;0.60;;
6438;SDS011;3252;52.540;13.290;2023-02-27T14:03:51;3.63;;;1.10;;
6438;SDS011;3252;52.540;13.290;2023-02-27T14:05:56;1.10;;;0.70;;
6438;SDS011;3252;52.540;13.290;2023-02-27T14:08:06;1.60;;;0.80;;
6438;SDS011;3252;52.540;13.290;2023-02-27T14:10:18;1.03;;;0.60;;
6438;SDS011;3252;52.540;13.290;2023-02-27T14:12:25;3.23;;;0.80;;
6438;SDS011;3252;52.540;13.290;2023-02-27T14:14:34;1.57;;;0.60;;
6438;SDS011;3252;52.540;13.290;2023-02-27T14:19:24;1.83;;;0.70;;
6438;SDS011;3252;52.540;13.290;2023-02-27T14:21:52;2.00;;;0.77;;
6438;SDS011;3252;52.540;13.290;2023-02-27T14:23:57;3.60;;;0.63;;
6438;SDS011;3252;52.540;13.290;2023-02-27T14:26:01;2.33;;;0.87;;
6438;SDS011;3252;52.540;13.290;2023-02-27T14:28:14;1.73;;;0.80;;
6438;SDS011;3252;52.540;13.290;2023-02-27T14:30:24;2.13;;;0.70;;
6438;SDS011;3252;52.540;13.290;2023-02-27T14:32:31;2.10;;;0.70;;
6438;SDS011;3252;52.540;13.290;2023-02-27T14:34:35;4.60;;;0.90;;
6438;SDS011;3252;52.540;13.290;2023-02-27T14:36:41;5.43;;;0.80;;
6438;SDS011;3252;52.540;13.290;2023-02-27T14:38:46;2.13;;;0.90;;
6438;SDS011;3252;52.540;13.290;2023-02-27T14:40:53;4.90;;;0.90;;
6438;SDS011;3252;52.540;13.290;2023-02-27T14:43:08;4.47;;;1.00;;
6438;SDS011;3252;52.540;13.290;2023-02-27T14:45:18;2.57;;;0.83;;
6438;SDS011;3252;52.540;13.290;2023-02-27T14:47:23;1.30;;;0.90;;
6438;SDS011;3252;52.540;13.290;2023-02-27T14:49:30;3.53;;;0.90;;
6438;SDS011;3252;52.540;13.290;2023-02-27T14:51:35;1.87;;;0.90;;
6438;SDS011;3252;52.540;13.290;2023-02-27T14:53:38;2.30;;;0.80;;
6438;SDS011;3252;52.540;13.290;2023-02-27T14:55:42;2.57;;;0.90;;
6438;SDS011;3252;52.540;13.290;2023-02-27T14:58:07;1.77;;;0.90;;
6438;SDS011;3252;52.540;13.290;2023-02-27T15:02:39;5.20;;;1.07;;
6438;SDS011;3252;52.540;13.290;2023-02-27T15:04:44;3.40;;;1.00;;
6438;SDS011;3252;52.540;13.290;2023-02-27T15:06:47;2.43;;;1.10;;
6438;SDS011;3252;52.540;13.290;2023-02-27T15:08:54;3.87;;;1.00;;
6438;SDS011;3252;52.540;13.290;2023-02-27T15:10:59;1.37;;;0.87;;
6438;SDS011;3252;52.540;13.290;2023-02-27T15:13:02;3.80;;;0.80;;
6438;SDS011;3252;52.540;13.290;2023-02-27T15:15:05;1.77;;;0.70;;
6438;SDS011;3252;52.540;13.290;2023-02-27T15:17:18;1.57;;;0.70;;
6438;SDS011;3252;52.540;13.290;2023-02-27T15:19:23;2.10;;;0.60;;
6438;SDS011;3252;52.540;13.290;2023-02-27T15:21:29;2.10;;;0.60;;